sensor_id;sensor_type;location;lat;lon;timestamp;P1;durP1;ratioP1;P2;durP2;ratioP2
55465;SDS011;41329;41.594;23.810;2023-02-01T00:01:18;4.37;;;3.77;;
55465;SDS011;41329;41.594;23.810;2023-02-01T00:03:43;3.00;;;2.80;;
55465;SDS011;41329;41.594;23.810;2023-02-01T00:06:09;5.13;;;4.73;;
55465;SDS011;41329;41.594;23.810;2023-02-01T00:08:34;3.10;;;2.87;;
55465;SDS011;41329;41.594;23.810;2023-02-01T00:11:09;3.23;;;2.93;;
55465;SDS011;41329;41.594;23.810;2023-02-01T00:13:37;2.73;;;2.53;;
55465;SDS011;41329;41.594;23.810;2023-02-01T00:16:11;2.83;;;2.60;;
55465;SDS011;41329;41.594;23.810;2023-02-01T00:18:41;2.73;;;2.53;;
55465;SDS011;41329;41.594;23.810;2023-02-01T00:21:07;6.30;;;2.97;;
55465;SDS011;41329;41.594;23.810;2023-02-01T00:23:34;2.70;;;2.50;;
55465;SDS011;41329;41.594;23.810;2023-02-01T00:26:00;2.77;;;2.33;;
55465;SDS011;41329;41.594;23.810;2023-02-01T00:28:27;2.70;;;2.50;;
55465;SDS011;41329;41.594;23.810;2023-02-01T00:30:59;2.90;;;2.70;;
55465;SDS011;41329;41.594;23.810;2023-02-01T00:33:27;2.83;;;2.63;;
55465;SDS011;41329;41.594;23.810;2023-02-01T00:36:00;3.53;;;2.70;;
55465;SDS011;41329;41.594;23.810;2023-02-01T00:38:28;2.47;;;2.27;;
55465;SDS011;41329;41.594;23.810;2023-02-01T00:40:54;2.40;;;2.20;;
55465;SDS011;41329;41.594;23.810;2023-02-01T00:43:26;2.83;;;2.63;;
55465;SDS011;41329;41.594;23.810;2023-02-01T00:45:51;2.63;;;2.43;;
55465;SDS011;41329;41.594;23.810;2023-02-01T00:48:17;3.00;;;2.80;;
55465;SDS011;41329;41.594;23.810;2023-02-01T00:50:42;3.37;;;2.60;;
55465;SDS011;41329;41.594;23.810;2023-02-01T00:53:09;2.77;;;2.57;;
55465;SDS011;41329;41.594;23.810;2023-02-01T00:55:35;4.97;;;4.57;;
55465;SDS011;41329;41.594;23.810;2023-02-01T00:58:01;7.93;;;7.33;;
55465;SDS011;41329;41.594;23.810;2023-02-01T01:00:26;7.03;;;5.17;;
55465;SDS011;41329;41.594;23.810;2023-02-01T01:02:52;5.00;;;4.60;;
55465;SDS011;41329;41.594;23.810;2023-02-01T01:05:18;3.17;;;2.97;;
55465;SDS011;41329;41.594;23.810;2023-02-01T01:07:43;3.87;;;3.43;;
55465;SDS011;41329;41.594;23.810;2023-02-01T01:10:09;3.93;;;3.53;;
55465;SDS011;41329;41.594;23.810;2023-02-01T01:12:35;5.37;;;4.87;;
55465;SDS011;41329;41.594;23.810;2023-02-01T01:15:00;5.63;;;5.13;;
55465;SDS011;41329;41.594;23.810;2023-02-01T01:17:26;4.33;;;3.93;;
55465;SDS011;41329;41.594;23.810;2023-02-01T01:19:51;4.50;;;4.10;;
55465;SDS011;41329;41.594;23.810;2023-02-01T01:22:16;5.27;;;4.63;;
55465;SDS011;41329;41.594;23.810;2023-02-01T01:24:43;4.90;;;4.40;;
55465;SDS011;41329;41.594;23.810;2023-02-01T01:27:08;4.13;;;3.73;;
55465;SDS011;41329;41.594;23.810;2023-02-01T01:29:34;2.53;;;2.33;;
55465;SDS011;41329;41.594;23.810;2023-02-01T01:31:59;2.97;;;2.67;;
55465;SDS011;41329;41.594;23.810;2023-02-01T01:34:25;2.33;;;1.90;;
55465;SDS011;41329;41.594;23.810;2023-02-01T01:36:50;2.13;;;1.80;;
55465;SDS011;41329;41.594;23.810;2023-02-01T01:39:16;1.80;;;1.63;;
55465;SDS011;41329;41.594;23.810;2023-02-01T01:41:41;1.80;;;1.70;;
55465;SDS011;41329;41.594;23.810;2023-02-01T01:44:55;2.47;;;2.27;;
55465;SDS011;41329;41.594;23.810;2023-02-01T01:47:18;2.50;;;2.30;;
55465;SDS011;41329;41.594;23.810;2023-02-01T01:49:44;2.23;;;2.03;;
55465;SDS011;41329;41.594;23.810;2023-02-01T01:52:09;3.37;;;3.00;;
55465;SDS011;41329;41.594;23.810;2023-02-01T01:54:39;4.20;;;2.90;;
55465;SDS011;41329;41.594;23.810;2023-02-01T01:57:09;3.47;;;2.77;;
55465;SDS011;41329;41.594;23.810;2023-02-01T01:59:40;2.77;;;2.57;;
55465;SDS011;41329;41.594;23.810;2023-02-01T02:02:08;2.80;;;2.60;;
55465;SDS011;41329;41.594;23.810;2023-02-01T02:04:34;3.23;;;2.93;;
55465;SDS011;41329;41.594;23.810;2023-02-01T02:07:01;3.67;;;3.37;;
55465;SDS011;41329;41.594;23.810;2023-02-01T02:09:37;5.47;;;4.30;;
55465;SDS011;41329;41.594;23.810;2023-02-01T02:12:03;3.27;;;2.97;;
55465;SDS011;41329;41.594;23.810;2023-02-01T02:14:28;2.50;;;2.30;;
55465;SDS011;41329;41.594;23.810;2023-02-01T02:17:30;2.20;;;1.80;;
55465;SDS011;41329;41.594;23.810;2023-02-01T02:22:44;2.30;;;2.10;;
55465;SDS011;41329;41.594;23.810;2023-02-01T02:36:43;3.30;;;3.00;;
55465;SDS011;41329;41.594;23.810;2023-02-01T02:39:51;1.77;;;1.30;;
55465;SDS011;41329;41.594;23.810;2023-02-01T02:52:11;1.30;;;1.20;;
55465;SDS011;41329;41.594;23.810;2023-02-01T02:54:38;1.03;;;0.97;;
55465;SDS011;41329;41.594;23.810;2023-02-01T02:57:12;1.43;;;1.33;;
55465;SDS011;41329;41.594;23.810;2023-02-01T03:00:02;1.55;;;1.45;;
55465;SDS011;41329;41.594;23.810;2023-02-01T03:02:49;2.27;;;2.07;;
55465;SDS011;41329;41.594;23.810;2023-02-01T03:05:34;6.73;;;6.23;;
55465;SDS011;41329;41.594;23.810;2023-02-01T03:13:02;7.27;;;6.67;;
55465;SDS011;41329;41.594;23.810;2023-02-01T03:15:38;8.13;;;7.43;;
55465;SDS011;41329;41.594;23.810;2023-02-01T03:18:07;7.30;;;6.60;;
55465;SDS011;41329;41.594;23.810;2023-02-01T03:20:43;5.17;;;4.77;;
55465;SDS011;41329;41.594;23.810;2023-02-01T03:23:12;4.57;;;4.18;;
55465;SDS011;41329;41.594;23.810;2023-02-01T03:25:42;3.60;;;3.30;;
55465;SDS011;41329;41.594;23.810;2023-02-01T03:28:09;3.40;;;3.10;;
55465;SDS011;41329;41.594;23.810;2023-02-01T03:30:40;2.17;;;1.97;;
55465;SDS011;41329;41.594;23.810;2023-02-01T03:33:15;2.37;;;2.17;;
55465;SDS011;41329;41.594;23.810;2023-02-01T03:46:22;1.60;;;1.33;;
55465;SDS011;41329;41.594;23.810;2023-02-01T03:48:52;1.47;;;1.23;;
55465;SDS011;41329;41.594;23.810;2023-02-01T03:51:20;1.67;;;1.57;;
55465;SDS011;41329;41.594;23.810;2023-02-01T03:53:47;2.03;;;1.70;;
55465;SDS011;41329;41.594;23.810;2023-02-01T03:56:15;1.70;;;1.40;;
55465;SDS011;41329;41.594;23.810;2023-02-01T03:58:43;1.67;;;1.37;;
55465;SDS011;41329;41.594;23.810;2023-02-01T04:01:23;2.65;;;2.45;;
55465;SDS011;41329;41.594;23.810;2023-02-01T04:03:49;2.37;;;2.17;;
55465;SDS011;41329;41.594;23.810;2023-02-01T04:06:16;2.03;;;1.83;;
55465;SDS011;41329;41.594;23.810;2023-02-01T04:08:42;2.33;;;2.13;;
55465;SDS011;41329;41.594;23.810;2023-02-01T04:11:07;6.57;;;6.07;;
55465;SDS011;41329;41.594;23.810;2023-02-01T04:13:32;8.43;;;7.83;;
55465;SDS011;41329;41.594;23.810;2023-02-01T04:15:58;7.27;;;6.70;;
55465;SDS011;41329;41.594;23.810;2023-02-01T04:18:23;11.07;;;9.97;;
55465;SDS011;41329;41.594;23.810;2023-02-01T04:20:49;13.23;;;11.87;;
55465;SDS011;41329;41.594;23.810;2023-02-01T04:23:14;13.70;;;10.43;;
55465;SDS011;41329;41.594;23.810;2023-02-01T04:25:40;11.30;;;10.20;;
55465;SDS011;41329;41.594;23.810;2023-02-01T04:28:06;13.93;;;10.33;;
55465;SDS011;41329;41.594;23.810;2023-02-01T04:30:32;22.23;;;15.73;;
55465;SDS011;41329;41.594;23.810;2023-02-01T04:32:57;17.43;;;14.23;;
55465;SDS011;41329;41.594;23.810;2023-02-01T04:35:23;19.53;;;16.60;;
55465;SDS011;41329;41.594;23.810;2023-02-01T04:37:48;14.07;;;12.50;;
55465;SDS011;41329;41.594;23.810;2023-02-01T04:40:14;12.33;;;11.13;;
55465;SDS011;41329;41.594;23.810;2023-02-01T04:42:40;10.67;;;9.60;;
55465;SDS011;41329;41.594;23.810;2023-02-01T04:45:06;7.97;;;7.23;;
55465;SDS011;41329;41.594;23.810;2023-02-01T04:47:32;7.40;;;6.80;;
55465;SDS011;41329;41.594;23.810;2023-02-01T04:49:57;7.27;;;6.67;;
55465;SDS011;41329;41.594;23.810;2023-02-01T04:52:23;6.60;;;6.00;;
55465;SDS011;41329;41.594;23.810;2023-02-01T04:54:48;7.53;;;6.90;;
55465;SDS011;41329;41.594;23.810;2023-02-01T04:57:13;7.97;;;7.23;;
55465;SDS011;41329;41.594;23.810;2023-02-01T04:59:40;7.57;;;6.87;;
55465;SDS011;41329;41.594;23.810;2023-02-01T05:02:05;8.23;;;7.43;;
55465;SDS011;41329;41.594;23.810;2023-02-01T05:04:31;7.23;;;6.13;;
55465;SDS011;41329;41.594;23.810;2023-02-01T05:06:56;6.43;;;5.93;;
55465;SDS011;41329;41.594;23.810;2023-02-01T05:09:22;6.30;;;5.80;;
55465;SDS011;41329;41.594;23.810;2023-02-01T05:11:47;6.53;;;6.03;;
55465;SDS011;41329;41.594;23.810;2023-02-01T05:14:31;84.83;;;42.17;;
55465;SDS011;41329;41.594;23.810;2023-02-01T05:16:56;15.43;;;13.40;;
55465;SDS011;41329;41.594;23.810;2023-02-01T05:19:22;11.33;;;10.23;;
55465;SDS011;41329;41.594;23.810;2023-02-01T05:21:47;6.40;;;6.00;;
55465;SDS011;41329;41.594;23.810;2023-02-01T05:24:13;5.90;;;5.40;;
55465;SDS011;41329;41.594;23.810;2023-02-01T05:26:40;6.17;;;5.57;;
55465;SDS011;41329;41.594;23.810;2023-02-01T05:29:06;6.50;;;6.00;;
55465;SDS011;41329;41.594;23.810;2023-02-01T05:31:33;6.67;;;6.07;;
55465;SDS011;41329;41.594;23.810;2023-02-01T05:33:59;6.13;;;5.73;;
55465;SDS011;41329;41.594;23.810;2023-02-01T05:36:25;7.20;;;6.60;;
55465;SDS011;41329;41.594;23.810;2023-02-01T05:38:50;7.57;;;6.97;;
55465;SDS011;41329;41.594;23.810;2023-02-01T05:41:16;7.60;;;7.03;;
55465;SDS011;41329;41.594;23.810;2023-02-01T05:43:41;7.00;;;6.23;;
55465;SDS011;41329;41.594;23.810;2023-02-01T05:46:07;6.50;;;6.00;;
55465;SDS011;41329;41.594;23.810;2023-02-01T05:48:35;5.80;;;5.40;;
55465;SDS011;41329;41.594;23.810;2023-02-01T05:51:01;5.53;;;5.10;;
55465;SDS011;41329;41.594;23.810;2023-02-01T05:53:26;4.97;;;4.57;;
55465;SDS011;41329;41.594;23.810;2023-02-01T05:55:52;6.60;;;6.00;;
55465;SDS011;41329;41.594;23.810;2023-02-01T05:58:17;7.20;;;6.60;;
55465;SDS011;41329;41.594;23.810;2023-02-01T06:00:42;7.10;;;6.50;;
55465;SDS011;41329;41.594;23.810;2023-02-01T06:03:08;12.63;;;10.70;;
55465;SDS011;41329;41.594;23.810;2023-02-01T06:05:33;24.60;;;20.60;;
55465;SDS011;41329;41.594;23.810;2023-02-01T06:07:59;31.10;;;20.60;;
55465;SDS011;41329;41.594;23.810;2023-02-01T06:10:24;14.90;;;13.50;;
55465;SDS011;41329;41.594;23.810;2023-02-01T06:12:50;11.73;;;10.73;;
55465;SDS011;41329;41.594;23.810;2023-02-01T06:15:15;7.50;;;6.90;;
55465;SDS011;41329;41.594;23.810;2023-02-01T06:17:44;6.17;;;5.67;;
55465;SDS011;41329;41.594;23.810;2023-02-01T06:20:12;19.77;;;17.37;;
55465;SDS011;41329;41.594;23.810;2023-02-01T06:22:40;28.63;;;20.53;;
55465;SDS011;41329;41.594;23.810;2023-02-01T06:25:05;23.37;;;18.90;;
55465;SDS011;41329;41.594;23.810;2023-02-01T06:27:33;28.97;;;22.33;;
55465;SDS011;41329;41.594;23.810;2023-02-01T06:29:59;34.90;;;23.40;;
55465;SDS011;41329;41.594;23.810;2023-02-01T06:32:24;57.87;;;29.13;;
55465;SDS011;41329;41.594;23.810;2023-02-01T06:34:50;61.80;;;33.73;;
55465;SDS011;41329;41.594;23.810;2023-02-01T06:37:17;53.73;;;31.07;;
55465;SDS011;41329;41.594;23.810;2023-02-01T06:39:43;44.27;;;27.40;;
55465;SDS011;41329;41.594;23.810;2023-02-01T06:42:09;40.63;;;27.77;;
55465;SDS011;41329;41.594;23.810;2023-02-01T06:44:34;36.47;;;25.57;;
55465;SDS011;41329;41.594;23.810;2023-02-01T06:47:00;32.97;;;24.67;;
55465;SDS011;41329;41.594;23.810;2023-02-01T06:49:25;43.23;;;26.90;;
55465;SDS011;41329;41.594;23.810;2023-02-01T06:51:51;37.20;;;23.73;;
55465;SDS011;41329;41.594;23.810;2023-02-01T06:54:16;18.37;;;16.43;;
55465;SDS011;41329;41.594;23.810;2023-02-01T06:56:42;35.07;;;24.07;;
55465;SDS011;41329;41.594;23.810;2023-02-01T06:59:07;49.17;;;27.97;;
55465;SDS011;41329;41.594;23.810;2023-02-01T07:01:33;18.37;;;16.43;;
55465;SDS011;41329;41.594;23.810;2023-02-01T07:03:58;29.47;;;20.70;;
55465;SDS011;41329;41.594;23.810;2023-02-01T07:06:24;34.73;;;23.77;;
55465;SDS011;41329;41.594;23.810;2023-02-01T07:08:50;21.47;;;19.23;;
55465;SDS011;41329;41.594;23.810;2023-02-01T07:11:16;26.43;;;20.23;;
55465;SDS011;41329;41.594;23.810;2023-02-01T07:13:42;43.97;;;24.07;;
55465;SDS011;41329;41.594;23.810;2023-02-01T07:16:09;179.90;;;85.73;;
55465;SDS011;41329;41.594;23.810;2023-02-01T07:18:37;94.77;;;48.60;;
55465;SDS011;41329;41.594;23.810;2023-02-01T07:21:02;45.00;;;26.93;;
55465;SDS011;41329;41.594;23.810;2023-02-01T07:23:28;23.10;;;19.33;;
55465;SDS011;41329;41.594;23.810;2023-02-01T07:25:55;17.57;;;15.73;;
55465;SDS011;41329;41.594;23.810;2023-02-01T07:28:22;13.87;;;12.57;;
55465;SDS011;41329;41.594;23.810;2023-02-01T07:30:47;12.10;;;11.17;;
55465;SDS011;41329;41.594;23.810;2023-02-01T07:33:19;11.23;;;9.53;;
55465;SDS011;41329;41.594;23.810;2023-02-01T07:35:47;10.87;;;10.07;;
55465;SDS011;41329;41.594;23.810;2023-02-01T07:38:13;12.80;;;11.80;;
55465;SDS011;41329;41.594;23.810;2023-02-01T07:40:39;20.63;;;18.57;;
55465;SDS011;41329;41.594;23.810;2023-02-01T07:43:06;19.70;;;17.80;;
55465;SDS011;41329;41.594;23.810;2023-02-01T07:45:32;14.30;;;12.93;;
55465;SDS011;41329;41.594;23.810;2023-02-01T07:47:58;9.77;;;8.77;;
55465;SDS011;41329;41.594;23.810;2023-02-01T07:50:24;14.03;;;12.80;;
55465;SDS011;41329;41.594;23.810;2023-02-01T07:52:49;10.73;;;9.47;;
55465;SDS011;41329;41.594;23.810;2023-02-01T07:55:15;8.73;;;7.90;;
55465;SDS011;41329;41.594;23.810;2023-02-01T07:57:41;8.90;;;7.20;;
55465;SDS011;41329;41.594;23.810;2023-02-01T08:00:07;7.53;;;6.77;;
55465;SDS011;41329;41.594;23.810;2023-02-01T08:02:52;15.73;;;14.10;;
55465;SDS011;41329;41.594;23.810;2023-02-01T08:05:17;19.87;;;17.33;;
55465;SDS011;41329;41.594;23.810;2023-02-01T08:07:43;27.67;;;19.93;;
55465;SDS011;41329;41.594;23.810;2023-02-01T08:10:08;19.70;;;17.00;;
55465;SDS011;41329;41.594;23.810;2023-02-01T08:12:36;19.90;;;14.50;;
55465;SDS011;41329;41.594;23.810;2023-02-01T08:15:02;14.37;;;12.43;;
55465;SDS011;41329;41.594;23.810;2023-02-01T08:17:28;19.53;;;15.47;;
55465;SDS011;41329;41.594;23.810;2023-02-01T08:19:54;10.00;;;9.27;;
55465;SDS011;41329;41.594;23.810;2023-02-01T08:22:19;11.03;;;10.13;;
55465;SDS011;41329;41.594;23.810;2023-02-01T08:24:47;10.53;;;9.53;;
55465;SDS011;41329;41.594;23.810;2023-02-01T08:27:13;9.20;;;8.50;;
55465;SDS011;41329;41.594;23.810;2023-02-01T08:29:39;10.07;;;9.37;;
55465;SDS011;41329;41.594;23.810;2023-02-01T08:32:04;7.33;;;6.83;;
55465;SDS011;41329;41.594;23.810;2023-02-01T08:34:30;10.60;;;9.90;;
55465;SDS011;41329;41.594;23.810;2023-02-01T08:36:56;11.87;;;10.87;;
55465;SDS011;41329;41.594;23.810;2023-02-01T08:39:25;12.20;;;11.07;;
55465;SDS011;41329;41.594;23.810;2023-02-01T08:41:51;11.03;;;10.23;;
55465;SDS011;41329;41.594;23.810;2023-02-01T08:44:35;11.00;;;10.17;;
55465;SDS011;41329;41.594;23.810;2023-02-01T08:47:01;10.13;;;9.33;;
55465;SDS011;41329;41.594;23.810;2023-02-01T08:49:28;7.97;;;7.47;;
55465;SDS011;41329;41.594;23.810;2023-02-01T08:51:53;5.10;;;4.70;;
55465;SDS011;41329;41.594;23.810;2023-02-01T08:54:19;5.63;;;5.20;;
55465;SDS011;41329;41.594;23.810;2023-02-01T08:56:46;5.03;;;4.63;;
55465;SDS011;41329;41.594;23.810;2023-02-01T08:59:11;5.27;;;4.80;;
55465;SDS011;41329;41.594;23.810;2023-02-01T09:01:36;4.20;;;2.20;;
55465;SDS011;41329;41.594;23.810;2023-02-01T09:04:02;3.33;;;2.40;;
55465;SDS011;41329;41.594;23.810;2023-02-01T09:06:27;2.13;;;1.60;;
55465;SDS011;41329;41.594;23.810;2023-02-01T09:08:53;2.30;;;2.10;;
55465;SDS011;41329;41.594;23.810;2023-02-01T09:11:18;3.40;;;3.17;;
55465;SDS011;41329;41.594;23.810;2023-02-01T09:13:44;2.40;;;2.20;;
55465;SDS011;41329;41.594;23.810;2023-02-01T09:16:10;6.50;;;5.57;;
55465;SDS011;41329;41.594;23.810;2023-02-01T09:18:35;2.97;;;2.40;;
55465;SDS011;41329;41.594;23.810;2023-02-01T09:21:07;2.60;;;2.17;;
55465;SDS011;41329;41.594;23.810;2023-02-01T09:23:33;2.03;;;1.93;;
55465;SDS011;41329;41.594;23.810;2023-02-01T09:26:03;1.60;;;1.40;;
55465;SDS011;41329;41.594;23.810;2023-02-01T09:28:29;2.05;;;1.42;;
55465;SDS011;41329;41.594;23.810;2023-02-01T09:30:56;1.97;;;1.57;;
55465;SDS011;41329;41.594;23.810;2023-02-01T09:33:23;1.40;;;1.20;;
55465;SDS011;41329;41.594;23.810;2023-02-01T09:35:49;1.93;;;1.50;;
55465;SDS011;41329;41.594;23.810;2023-02-01T09:38:19;2.20;;;1.47;;
55465;SDS011;41329;41.594;23.810;2023-02-01T09:40:46;2.33;;;2.13;;
55465;SDS011;41329;41.594;23.810;2023-02-01T09:46:18;2.50;;;2.30;;
55465;SDS011;41329;41.594;23.810;2023-02-01T09:48:48;2.70;;;2.50;;
55465;SDS011;41329;41.594;23.810;2023-02-01T09:51:22;2.33;;;2.20;;
55465;SDS011;41329;41.594;23.810;2023-02-01T10:01:44;7.73;;;7.10;;
55465;SDS011;41329;41.594;23.810;2023-02-01T10:04:11;13.00;;;11.80;;
55465;SDS011;41329;41.594;23.810;2023-02-01T10:06:57;3.10;;;2.83;;
55465;SDS011;41329;41.594;23.810;2023-02-01T10:09:36;4.10;;;2.20;;
55465;SDS011;41329;41.594;23.810;2023-02-01T10:25:37;9.57;;;8.73;;
55465;SDS011;41329;41.594;23.810;2023-02-01T10:28:26;4.20;;;3.90;;
55465;SDS011;41329;41.594;23.810;2023-02-01T10:30:52;14.60;;;10.63;;
55465;SDS011;41329;41.594;23.810;2023-02-01T10:33:26;28.20;;;18.75;;
55465;SDS011;41329;41.594;23.810;2023-02-01T10:36:01;7.70;;;7.07;;
55465;SDS011;41329;41.594;23.810;2023-02-01T10:38:36;3.53;;;3.23;;
55465;SDS011;41329;41.594;23.810;2023-02-01T10:41:03;3.10;;;2.80;;
55465;SDS011;41329;41.594;23.810;2023-02-01T10:43:55;2.23;;;1.60;;
55465;SDS011;41329;41.594;23.810;2023-02-01T10:46:23;4.70;;;2.78;;
55465;SDS011;41329;41.594;23.810;2023-02-01T10:48:50;1.77;;;1.67;;
55465;SDS011;41329;41.594;23.810;2023-02-01T10:51:24;1.57;;;1.47;;
55465;SDS011;41329;41.594;23.810;2023-02-01T10:53:55;4.37;;;2.07;;
55465;SDS011;41329;41.594;23.810;2023-02-01T10:56:26;2.57;;;1.63;;
55465;SDS011;41329;41.594;23.810;2023-02-01T10:58:59;2.63;;;1.50;;
55465;SDS011;41329;41.594;23.810;2023-02-01T11:01:31;4.73;;;1.20;;
55465;SDS011;41329;41.594;23.810;2023-02-01T11:04:00;1.33;;;0.80;;
55465;SDS011;41329;41.594;23.810;2023-02-01T11:19:20;1.55;;;1.30;;
55465;SDS011;41329;41.594;23.810;2023-02-01T11:21:50;6.87;;;1.67;;
55465;SDS011;41329;41.594;23.810;2023-02-01T11:24:29;1.10;;;1.00;;
55465;SDS011;41329;41.594;23.810;2023-02-01T11:26:59;1.20;;;1.00;;
55465;SDS011;41329;41.594;23.810;2023-02-01T11:29:28;1.40;;;1.17;;
55465;SDS011;41329;41.594;23.810;2023-02-01T11:32:04;2.50;;;1.10;;
55465;SDS011;41329;41.594;23.810;2023-02-01T11:34:37;1.33;;;1.20;;
55465;SDS011;41329;41.594;23.810;2023-02-01T11:37:09;1.27;;;1.13;;
55465;SDS011;41329;41.594;23.810;2023-02-01T11:39:57;3.23;;;1.53;;
55465;SDS011;41329;41.594;23.810;2023-02-01T11:42:25;2.07;;;1.80;;
55465;SDS011;41329;41.594;23.810;2023-02-01T11:44:52;2.23;;;0.77;;
55465;SDS011;41329;41.594;23.810;2023-02-01T11:47:53;2.13;;;1.27;;
55465;SDS011;41329;41.594;23.810;2023-02-01T12:18:33;1.20;;;1.10;;
55465;SDS011;41329;41.594;23.810;2023-02-01T12:21:42;1.57;;;1.20;;
55465;SDS011;41329;41.594;23.810;2023-02-01T12:25:01;1.63;;;1.10;;
55465;SDS011;41329;41.594;23.810;2023-02-01T12:43:19;1.43;;;1.30;;
55465;SDS011;41329;41.594;23.810;2023-02-01T12:51:01;1.93;;;1.17;;
55465;SDS011;41329;41.594;23.810;2023-02-01T12:53:35;2.80;;;1.10;;
55465;SDS011;41329;41.594;23.810;2023-02-01T12:56:10;1.10;;;1.03;;
55465;SDS011;41329;41.594;23.810;2023-02-01T12:58:46;1.20;;;1.10;;
55465;SDS011;41329;41.594;23.810;2023-02-01T13:01:17;5.53;;;1.50;;
55465;SDS011;41329;41.594;23.810;2023-02-01T13:03:59;1.33;;;1.23;;
55465;SDS011;41329;41.594;23.810;2023-02-01T13:06:35;3.30;;;1.40;;
55465;SDS011;41329;41.594;23.810;2023-02-01T13:11:39;1.63;;;1.20;;
55465;SDS011;41329;41.594;23.810;2023-02-01T13:14:29;1.30;;;1.20;;
55465;SDS011;41329;41.594;23.810;2023-02-01T13:16:59;1.77;;;1.20;;
55465;SDS011;41329;41.594;23.810;2023-02-01T13:19:45;1.33;;;1.13;;
55465;SDS011;41329;41.594;23.810;2023-02-01T13:22:25;1.27;;;1.17;;
55465;SDS011;41329;41.594;23.810;2023-02-01T13:27:35;3.47;;;1.23;;
55465;SDS011;41329;41.594;23.810;2023-02-01T13:30:01;2.13;;;1.90;;
55465;SDS011;41329;41.594;23.810;2023-02-01T13:32:39;1.10;;;1.00;;
55465;SDS011;41329;41.594;23.810;2023-02-01T13:43:27;11.70;;;10.70;;
55465;SDS011;41329;41.594;23.810;2023-02-01T13:45:57;2.03;;;1.40;;
55465;SDS011;41329;41.594;23.810;2023-02-01T13:48:40;3.37;;;3.17;;
55465;SDS011;41329;41.594;23.810;2023-02-01T13:51:12;2.20;;;1.20;;
55465;SDS011;41329;41.594;23.810;2023-02-01T13:53:43;2.07;;;1.20;;
55465;SDS011;41329;41.594;23.810;2023-02-01T13:56:18;2.00;;;0.77;;
55465;SDS011;41329;41.594;23.810;2023-02-01T13:58:47;4.13;;;2.97;;
55465;SDS011;41329;41.594;23.810;2023-02-01T14:03:48;1.10;;;1.00;;
55465;SDS011;41329;41.594;23.810;2023-02-01T14:11:45;2.43;;;1.97;;
55465;SDS011;41329;41.594;23.810;2023-02-01T14:16:39;7.30;;;5.83;;
55465;SDS011;41329;41.594;23.810;2023-02-01T14:19:07;7.33;;;4.47;;
55465;SDS011;41329;41.594;23.810;2023-02-01T14:21:49;4.53;;;4.10;;
55465;SDS011;41329;41.594;23.810;2023-02-01T14:24:24;6.87;;;6.20;;
55465;SDS011;41329;41.594;23.810;2023-02-01T14:27:02;15.77;;;11.17;;
55465;SDS011;41329;41.594;23.810;2023-02-01T14:29:50;5.47;;;4.63;;
55465;SDS011;41329;41.594;23.810;2023-02-01T14:32:24;18.95;;;12.82;;
55465;SDS011;41329;41.594;23.810;2023-02-01T14:35:06;6.10;;;4.47;;
55465;SDS011;41329;41.594;23.810;2023-02-01T14:37:41;17.10;;;12.43;;
55465;SDS011;41329;41.594;23.810;2023-02-01T14:53:02;4.32;;;4.03;;
55465;SDS011;41329;41.594;23.810;2023-02-01T15:01:36;2.80;;;2.60;;
55465;SDS011;41329;41.594;23.810;2023-02-01T15:14:38;2.90;;;2.70;;
55465;SDS011;41329;41.594;23.810;2023-02-01T15:17:38;1.70;;;1.60;;
55465;SDS011;41329;41.594;23.810;2023-02-01T15:22:52;6.23;;;5.70;;
55465;SDS011;41329;41.594;23.810;2023-02-01T15:25:30;10.47;;;9.77;;
55465;SDS011;41329;41.594;23.810;2023-02-01T15:28:05;13.60;;;9.83;;
55465;SDS011;41329;41.594;23.810;2023-02-01T15:30:36;15.70;;;13.90;;
55465;SDS011;41329;41.594;23.810;2023-02-01T15:35:43;29.93;;;23.47;;
55465;SDS011;41329;41.594;23.810;2023-02-01T15:38:20;49.60;;;28.03;;
55465;SDS011;41329;41.594;23.810;2023-02-01T15:40:55;93.33;;;52.07;;
55465;SDS011;41329;41.594;23.810;2023-02-01T15:43:23;60.40;;;36.53;;
55465;SDS011;41329;41.594;23.810;2023-02-01T15:45:49;31.80;;;20.80;;
55465;SDS011;41329;41.594;23.810;2023-02-01T15:50:48;18.73;;;16.20;;
55465;SDS011;41329;41.594;23.810;2023-02-01T15:53:18;18.37;;;16.20;;
55465;SDS011;41329;41.594;23.810;2023-02-01T15:55:46;12.30;;;11.30;;
55465;SDS011;41329;41.594;23.810;2023-02-01T16:00:47;6.33;;;5.83;;
55465;SDS011;41329;41.594;23.810;2023-02-01T16:08:36;34.92;;;25.02;;
55465;SDS011;41329;41.594;23.810;2023-02-01T16:13:33;8.83;;;7.90;;
55465;SDS011;41329;41.594;23.810;2023-02-01T16:15:59;5.97;;;5.57;;
55465;SDS011;41329;41.594;23.810;2023-02-01T16:18:24;10.50;;;9.70;;
55465;SDS011;41329;41.594;23.810;2023-02-01T16:20:50;10.67;;;9.63;;
55465;SDS011;41329;41.594;23.810;2023-02-01T16:23:15;23.20;;;18.83;;
55465;SDS011;41329;41.594;23.810;2023-02-01T16:25:40;18.30;;;16.43;;
55465;SDS011;41329;41.594;23.810;2023-02-01T16:28:06;15.63;;;12.33;;
55465;SDS011;41329;41.594;23.810;2023-02-01T16:30:31;14.47;;;10.63;;
55465;SDS011;41329;41.594;23.810;2023-02-01T16:32:58;8.57;;;7.77;;
55465;SDS011;41329;41.594;23.810;2023-02-01T16:35:28;5.90;;;5.40;;
55465;SDS011;41329;41.594;23.810;2023-02-01T16:38:00;4.97;;;4.10;;
55465;SDS011;41329;41.594;23.810;2023-02-01T16:40:26;4.23;;;3.83;;
55465;SDS011;41329;41.594;23.810;2023-02-01T16:42:52;3.30;;;3.00;;
55465;SDS011;41329;41.594;23.810;2023-02-01T16:45:20;3.97;;;3.67;;
55465;SDS011;41329;41.594;23.810;2023-02-01T16:47:49;4.30;;;3.80;;
55465;SDS011;41329;41.594;23.810;2023-02-01T16:50:20;7.27;;;6.67;;
55465;SDS011;41329;41.594;23.810;2023-02-01T16:52:48;12.80;;;11.50;;
55465;SDS011;41329;41.594;23.810;2023-02-01T16:55:14;97.10;;;52.87;;
55465;SDS011;41329;41.594;23.810;2023-02-01T16:57:41;61.40;;;30.23;;
55465;SDS011;41329;41.594;23.810;2023-02-01T17:00:08;58.20;;;30.13;;
55465;SDS011;41329;41.594;23.810;2023-02-01T17:05:03;32.33;;;19.53;;
55465;SDS011;41329;41.594;23.810;2023-02-01T17:07:30;39.57;;;21.63;;
55465;SDS011;41329;41.594;23.810;2023-02-01T17:09:56;22.57;;;16.60;;
55465;SDS011;41329;41.594;23.810;2023-02-01T17:12:22;25.43;;;17.80;;
55465;SDS011;41329;41.594;23.810;2023-02-01T17:14:49;19.73;;;17.67;;
55465;SDS011;41329;41.594;23.810;2023-02-01T17:17:16;18.00;;;14.73;;
55465;SDS011;41329;41.594;23.810;2023-02-01T17:19:44;21.33;;;14.93;;
55465;SDS011;41329;41.594;23.810;2023-02-01T17:22:11;19.37;;;15.40;;
55465;SDS011;41329;41.594;23.810;2023-02-01T17:24:39;20.07;;;15.67;;
55465;SDS011;41329;41.594;23.810;2023-02-01T17:27:04;20.07;;;16.00;;
55465;SDS011;41329;41.594;23.810;2023-02-01T17:29:30;16.67;;;14.20;;
55465;SDS011;41329;41.594;23.810;2023-02-01T17:31:55;19.57;;;15.87;;
55465;SDS011;41329;41.594;23.810;2023-02-01T17:34:24;21.43;;;16.23;;
55465;SDS011;41329;41.594;23.810;2023-02-01T17:36:50;25.17;;;17.77;;
55465;SDS011;41329;41.594;23.810;2023-02-01T17:39:15;21.83;;;16.87;;
55465;SDS011;41329;41.594;23.810;2023-02-01T17:42:00;21.50;;;15.47;;
55465;SDS011;41329;41.594;23.810;2023-02-01T17:44:26;16.00;;;14.33;;
55465;SDS011;41329;41.594;23.810;2023-02-01T17:46:52;25.07;;;17.97;;
55465;SDS011;41329;41.594;23.810;2023-02-01T17:49:17;24.83;;;18.00;;
55465;SDS011;41329;41.594;23.810;2023-02-01T17:51:43;42.73;;;27.07;;
55465;SDS011;41329;41.594;23.810;2023-02-01T17:54:11;47.67;;;30.90;;
55465;SDS011;41329;41.594;23.810;2023-02-01T17:56:37;29.23;;;24.23;;
55465;SDS011;41329;41.594;23.810;2023-02-01T17:59:02;19.87;;;17.77;;